WetterOnline ( https://www.wetteronline.de )

Wetter aktuell Ankershagen

Aktuelles Wetter: Waren (71m)

6-stündlich | Neueste Meldungen
Ortszeit Temperatur Wetter
Mi, 18.05. 2:00 10.4° C wolkig
Di, 17.05. 20:00 17.0° C bedeckt
Di, 17.05. 14:00 19.0° C bewölkt
Di, 17.05. 8:00 13.3° C wolkig
Di, 17.05. 2:00 11.9° C wolkig
Mo, 16.05. 20:00 18.0° C bedeckt
Mo, 16.05. 14:00 21.4° C leicht bewölkt
Mo, 16.05. 8:00 13.0° C wolkenlos
Ortszeit Temperatur Wetter
Mi, 18.05. 4:30 9.3° C bedeckt
Mi, 18.05. 4:20 9.3° C bedeckt
Mi, 18.05. 4:10 9.2° C bedeckt
Mi, 18.05. 4:00 9.4° C bedeckt
Mi, 18.05. 3:50 9.4° C bedeckt
Mi, 18.05. 3:40 9.2° C bedeckt
Mi, 18.05. 3:30 9.6° C bedeckt
Mi, 18.05. 3:00 9.7° C bewölkt
Mi, 18.05. 2:30 10.0° C wolkig
Mi, 18.05. 2:00 10.4° C wolkig
Mi, 18.05. 1:30 10.6° C wolkig
Ortszeit Relative Feuchte Sichtweite
Mi, 18.05. 2:00 56% >70 km
Di, 17.05. 20:00 45% 65 km
Di, 17.05. 14:00 54% 50 km
Di, 17.05. 8:00 69% 50 km
Di, 17.05. 2:00 74% 50 km
Mo, 16.05. 20:00 56% 45 km
Mo, 16.05. 14:00 41% 55 km
Mo, 16.05. 8:00 67% 65 km
Ortszeit Relative Feuchte Sichtweite
Mi, 18.05. 4:30 59% 55 km
Mi, 18.05. 4:20 59% -
Mi, 18.05. 4:10 59% -
Mi, 18.05. 4:00 58% >70 km
Mi, 18.05. 3:50 58% -
Mi, 18.05. 3:40 58% -
Mi, 18.05. 3:30 56% >70 km
Mi, 18.05. 3:00 57% 65 km
Mi, 18.05. 2:30 56% 65 km
Mi, 18.05. 2:00 56% >70 km
Mi, 18.05. 1:30 58% >70 km
Ortszeit Niederschlagsmenge Niederschlagsart
Mi, 18.05. 2:00 0.0 l/m2 in 6 Std. -
Di, 17.05. 20:00 0.0 l/m2 in 12 Std. -
Di, 17.05. 14:00 0.0 l/m2 in 6 Std. -
Di, 17.05. 8:00 0.0 l/m2 in 12 Std. -
Di, 17.05. 2:00 0.0 l/m2 in 6 Std. -
Mo, 16.05. 20:00 0.0 l/m2 in 12 Std. -
Mo, 16.05. 14:00 0.0 l/m2 in 6 Std. -
Mo, 16.05. 8:00 0.0 l/m2 in 12 Std. -
Ortszeit Niederschlagsmenge Niederschlagsart
Mi, 18.05. 4:30 0.0 l/m2 in 1 Std. -
Mi, 18.05. 4:20 keine Meldung -
Mi, 18.05. 4:10 keine Meldung -
Mi, 18.05. 4:00 0.0 l/m2 in 1 Std. -
Mi, 18.05. 3:50 keine Meldung -
Mi, 18.05. 3:40 keine Meldung -
Mi, 18.05. 3:30 0.0 l/m2 in 1 Std. -
Mi, 18.05. 3:00 0.0 l/m2 in 1 Std. -
Mi, 18.05. 2:30 0.0 l/m2 in 1 Std. -
Mi, 18.05. 2:00 0.0 l/m2 in 1 Std. -
Mi, 18.05. 1:30 0.0 l/m2 in 1 Std. -
Ortszeit Stärke Spitze Richtung
km/h Bft. km/h Grad Sektor
Mi, 18.05. 2:00 11 2 32 90° O
Di, 17.05. 20:00 13 3 30 60° NO
Di, 17.05. 14:00 4 1 14 140° SO
Di, 17.05. 8:00 9 2 22 60° NO
Di, 17.05. 2:00 6 1 33 60° NO
Mo, 16.05. 20:00 18 3 32 60° NO
Mo, 16.05. 14:00 11 2 29 60° NO
Mo, 16.05. 8:00 6 1 11 130° SO
Ortszeit Stärke Spitze Richtung
km/h Bft. km/h Grad Sektor
Mi, 18.05. 4:30 7 2 14 90° O
Mi, 18.05. 4:20 7 2 - 90° O
Mi, 18.05. 4:10 7 2 - 90° O
Mi, 18.05. 4:00 7 2 22 90° O
Mi, 18.05. 3:50 7 2 - 90° O
Mi, 18.05. 3:40 9 2 - 90° O
Mi, 18.05. 3:30 9 2 22 90° O
Mi, 18.05. 3:00 9 2 20 90° O
Mi, 18.05. 2:30 9 2 20 90° O
Mi, 18.05. 2:00 11 2 25 90° O
Mi, 18.05. 1:30 11 2 25 80° O
Ortszeit Untergrenze Bedeckung Gattung
total tief tief mittel hoch
Mi, 18.05. 2:00 8100 m 8/8 0/8 - - -
Di, 17.05. 20:00 4500 m 8/8 8/8 - - -
Di, 17.05. 14:00 2100 m 8/8 6/8 - - -
Di, 17.05. 8:00 2400 m 7/8 1/8 - - -
Di, 17.05. 2:00 2100 m 7/8 1/8 - - -
Mo, 16.05. 20:00 5100 m 8/8 8/8 - - -
Mo, 16.05. 14:00 6000 m 4/8 3/8 - - -
Mo, 16.05. 8:00 - 0/8 0/8 - - -
Ortszeit Bedeckungsgrad in Achtel und Wolkenuntergrenze
Mi, 18.05. 4:30 8(6300m) 8(7800m)
Mi, 18.05. 4:20 8(6300m) 8(7800m)
Mi, 18.05. 4:10 8
Mi, 18.05. 4:00 8(6300m) 8(8700m)
Mi, 18.05. 3:50 8(6300m) 8(8700m)
Mi, 18.05. 3:40 8
Mi, 18.05. 3:30 8(6300m) 8(7800m)
Mi, 18.05. 3:00 5(6300m) 8(7800m) 8(9000m)
Mi, 18.05. 2:30 8(7800m) 8(9000m)
Mi, 18.05. 2:00 8(8100m) 8(9000m) 8(9000m)
Mi, 18.05. 1:30 7(8400m) 8(9000m)
Ortszeit Luftdruck NN (hPa) Tendenz (hPa in 3 Std.)
Mi, 18.05. 2:00 1025 + 1,0
Di, 17.05. 20:00 1022 + 1,2
Di, 17.05. 14:00 1021 + 0,6
Di, 17.05. 8:00 1019 + 0,5
Di, 17.05. 2:00 1018 - 0,1
Mo, 16.05. 20:00 1018 - 0,1
Mo, 16.05. 14:00 1019 - 1,1
Mo, 16.05. 8:00 1021 - 0,3
Ortszeit Luftdruck NN (hPa) Tendenz (hPa in 3 Std.)
Mi, 18.05. 4:30 1026 + 0,8
Mi, 18.05. 4:20 1026 keine Meldung
Mi, 18.05. 4:10 1026 keine Meldung
Mi, 18.05. 4:00 1025 + 0,8
Mi, 18.05. 3:50 1025 keine Meldung
Mi, 18.05. 3:40 1025 keine Meldung
Mi, 18.05. 3:30 1025 + 0,9
Mi, 18.05. 3:00 1025 + 0,8
Mi, 18.05. 2:30 1025 + 0,9
Mi, 18.05. 2:00 1025 + 1,0
Mi, 18.05. 1:30 1025 + 0,9
Ortszeit Schneehöhe (cm)
Mi, 18.05. 2:00 0
Di, 17.05. 20:00 0
Di, 17.05. 14:00 0
Di, 17.05. 8:00 0
Di, 17.05. 2:00 0
Mo, 16.05. 20:00 0
Mo, 16.05. 14:00 0
Mo, 16.05. 8:00 0
Ortszeit Schneehöhe (cm)
Mi, 18.05. 4:30 0
Mi, 18.05. 4:20 0
Mi, 18.05. 4:10 0
Mi, 18.05. 4:00 0
Mi, 18.05. 3:50 0
Mi, 18.05. 3:40 0
Mi, 18.05. 3:30 0
Mi, 18.05. 3:00 0
Mi, 18.05. 2:30 0
Mi, 18.05. 2:00 0
Mi, 18.05. 1:30 0
Link zu dieser Seite / Seite empfehlen

Das Wetter in ...